createdAt,value
2018-02-03T00:01:01.380Z,99414.59
2018-02-03T00:03:31.746Z,99406.02
2018-02-03T00:05:59.381Z,99404.56
2018-02-03T00:08:26.938Z,99408.22
2018-02-03T00:10:54.503Z,99407.39
2018-02-03T00:13:22.994Z,99406.34
2018-02-03T00:15:51.302Z,99407.73
2018-02-03T00:18:18.851Z,99401.91
2018-02-03T00:20:47.313Z,99399.39
2018-02-03T00:23:15.986Z,99392.59
2018-02-03T00:25:49.268Z,99398.25
2018-02-03T00:28:23.698Z,99394.48
2018-02-03T00:31:06.163Z,99399.72
2018-02-03T00:33:36.901Z,99389.38
2018-02-03T00:36:05.346Z,99392.47
2018-02-03T00:38:34.036Z,99391.31
2018-02-03T00:41:05.550Z,99379.41
2018-02-03T00:43:47.993Z,99375.03
2018-02-03T00:46:19.362Z,99361.90
2018-02-03T00:48:46.967Z,99364.73
2018-02-03T00:51:17.730Z,99359.81
2018-02-03T00:53:53.329Z,99359.74
2018-02-03T00:56:22.630Z,99367.63
2018-02-03T00:58:53.218Z,99378.11
2018-02-03T01:01:24.629Z,99379.67
2018-02-03T01:04:07.128Z,99372.23
2018-02-03T01:06:35.099Z,99373.41
2018-02-03T01:09:02.930Z,99368.27
2018-02-03T01:11:31.294Z,99355.91
2018-02-03T01:14:01.910Z,99347.21
2018-02-03T01:16:32.649Z,99343.05
2018-02-03T01:19:18.893Z,99344.13
2018-02-03T01:22:03.980Z,99334.85
2018-02-03T01:24:32.737Z,99345.08
2018-02-03T01:27:15.225Z,99345.50
2018-02-03T01:29:46.377Z,99343.67
2018-02-03T01:32:17.306Z,99338.73
2018-02-03T01:34:47.810Z,99343.28
2018-02-03T01:37:23.104Z,99354.25
2018-02-03T01:40:04.054Z,99351.72
2018-02-03T01:42:32.542Z,99347.13
2018-02-03T01:45:00.246Z,99346.35
2018-02-03T01:47:39.802Z,99353.72
2018-02-03T01:50:21.267Z,99352.05
2018-02-03T01:52:48.877Z,99356.11
2018-02-03T01:55:16.459Z,99349.30
2018-02-03T01:57:44.035Z,99343.38
2018-02-03T02:00:12.939Z,99346.86
2018-02-03T02:02:43.779Z,99341.91
2018-02-03T02:05:11.646Z,99327.91
2018-02-03T02:07:42.209Z,99314.73
2018-02-03T02:10:09.825Z,99305.55
2018-02-03T02:12:40.472Z,99304.09
2018-02-03T02:15:11.662Z,99298.55
2018-02-03T02:17:56.362Z,99304.17
2018-02-03T02:20:23.926Z,99290.03
2018-02-03T02:22:58.858Z,99284.98
2018-02-03T02:25:26.797Z,99279.52
2018-02-03T02:27:58.358Z,99290.02
2018-02-03T02:30:25.962Z,99281.17
2018-02-03T02:33:00.341Z,99287.34
2018-02-03T02:35:27.953Z,99279.92
2018-02-03T02:37:58.550Z,99266.31
2018-02-03T02:40:35.802Z,99265.16
2018-02-03T02:43:09.084Z,99256.56
2018-02-03T02:45:46.827Z,99254.82
2018-02-03T02:48:21.765Z,99236.98
2018-02-03T02:50:50.186Z,99229.70
2018-02-03T02:53:17.770Z,99232.50
2018-02-03T02:56:00.381Z,99231.98
2018-02-03T02:58:28.901Z,99231.56
2018-02-03T03:00:56.762Z,99221.80
2018-02-03T03:03:27.417Z,99222.34
2018-02-03T03:06:01.880Z,99218.37
2018-02-03T03:08:29.894Z,99220.36
2018-02-03T03:10:57.748Z,99224.06
2018-02-03T03:13:29.188Z,99231.56
2018-02-03T03:15:57.887Z,99238.19
2018-02-03T03:18:28.835Z,99237.06
2018-02-03T03:20:57.434Z,99239.91
2018-02-03T03:23:25.641Z,99234.30
2018-02-03T03:25:53.959Z,99235.13
2018-02-03T03:28:31.827Z,99231.80
2018-02-03T03:31:01.112Z,99241.48
2018-02-03T03:33:36.004Z,99241.14
2018-02-03T03:36:03.914Z,99239.73
2018-02-03T03:38:32.558Z,99248.81
2018-02-03T03:41:00.113Z,99230.42
2018-02-03T03:43:38.630Z,99219.60
2018-02-03T03:46:07.057Z,99213.94
2018-02-03T03:48:47.978Z,99211.20
2018-02-03T03:51:19.329Z,99208.02
2018-02-03T03:53:54.200Z,99211.57
2018-02-03T03:56:21.886Z,99217.38
2018-02-03T03:59:03.416Z,99210.17
2018-02-03T04:01:31.764Z,99211.97
2018-02-03T04:04:06.385Z,99205.06
2018-02-03T04:06:34.899Z,99199.80
2018-02-03T04:09:05.427Z,99201.06
2018-02-03T04:11:33.851Z,99199.43
2018-02-03T04:14:01.754Z,99204.72
2018-02-03T04:16:32.447Z,99192.70
2018-02-03T04:19:01.078Z,99195.82
2018-02-03T04:21:32.018Z,99200.58
2018-02-03T04:23:59.682Z,99204.77
2018-02-03T04:26:27.394Z,99200.38
2018-02-03T04:28:55.036Z,99198.44
2018-02-03T04:31:22.687Z,99191.51
2018-02-03T04:33:50.317Z,99186.34
2018-02-03T04:36:18.130Z,99189.98
2018-02-03T04:38:45.804Z,99198.57
2018-02-03T04:41:13.574Z,99195.50
2018-02-03T04:43:41.329Z,99182.53
2018-02-03T04:46:09.786Z,99175.33
2018-02-03T04:48:37.874Z,99181.70
2018-02-03T04:51:05.594Z,99186.31
2018-02-03T04:53:33.306Z,99184.61
2018-02-03T04:56:00.971Z,99173.90
2018-02-03T04:58:28.555Z,99165.12
2018-02-03T05:00:59.039Z,99179.70
2018-02-03T05:03:27.185Z,99166.74
2018-02-03T05:05:54.777Z,99174.02
2018-02-03T05:08:23.220Z,99168.05
2018-02-03T05:10:51.811Z,99170.28
2018-02-03T05:16:17.758Z,99165.28
2018-02-03T05:18:45.375Z,99164.23
2018-02-03T05:21:13.079Z,99160.36
2018-02-03T05:23:40.725Z,99155.46
2018-02-03T05:26:08.422Z,99156.41
2018-02-03T05:28:36.160Z,99151.73
2018-02-03T05:31:03.760Z,99143.58
2018-02-03T05:33:31.341Z,99147.67
2018-02-03T05:35:59.003Z,99152.20
2018-02-03T05:38:27.510Z,99140.98
2018-02-03T05:40:55.106Z,99134.95
2018-02-03T05:43:23.429Z,99127.47
2018-02-03T05:45:51.845Z,99113.91
2018-02-03T05:48:19.734Z,99101.73
2018-02-03T05:50:47.531Z,99095.97
2018-02-03T05:53:15.145Z,99100.47
2018-02-03T05:55:43.582Z,99090.08
2018-02-03T05:58:11.758Z,99074.19
2018-02-03T06:00:39.672Z,99076.70
2018-02-03T06:03:07.239Z,99074.09
2018-02-03T06:05:34.917Z,99080.24
2018-02-03T06:08:02.490Z,99084.83
2018-02-03T06:10:30.161Z,99084.20
2018-02-03T06:12:57.830Z,99073.64
2018-02-03T06:15:25.399Z,99083.23
2018-02-03T06:17:52.958Z,99069.17
2018-02-03T06:20:20.631Z,99062.16
2018-02-03T06:22:48.181Z,99063.95
2018-02-03T06:25:15.757Z,99068.63
2018-02-03T06:27:43.446Z,99078.97
2018-02-03T06:30:11.551Z,99080.17
2018-02-03T06:32:39.191Z,99080.02
2018-02-03T06:35:06.829Z,99091.73
2018-02-03T06:37:34.443Z,99090.19
2018-02-03T06:40:02.104Z,99070.23
2018-02-03T06:42:30.046Z,99061.35
2018-02-03T06:44:58.609Z,99069.60
2018-02-03T06:47:27.061Z,99067.08
2018-02-03T06:49:54.819Z,99071.19
2018-02-03T06:52:22.392Z,99077.92
2018-02-03T06:54:50.017Z,99081.02
2018-02-03T06:57:18.972Z,99067.27
2018-02-03T06:59:46.661Z,99064.29
2018-02-03T07:02:14.421Z,99061.91
2018-02-03T07:04:43.974Z,99069.03
2018-02-03T07:07:11.702Z,99065.67
2018-02-03T07:09:39.302Z,99072.83
2018-02-03T07:12:07.046Z,99076.22
2018-02-03T07:14:34.854Z,99062.55
2018-02-03T07:17:02.464Z,99066.62
2018-02-03T07:19:30.140Z,99057.66
2018-02-03T07:21:57.923Z,99047.31
2018-02-03T07:24:25.759Z,99054.31
2018-02-03T07:26:53.473Z,99074.95
2018-02-03T07:29:21.200Z,99070.95
2018-02-03T07:31:48.883Z,99079.80
2018-02-03T07:34:18.071Z,99093.09
2018-02-03T07:36:45.955Z,99088.80
2018-02-03T07:39:13.605Z,99095.16
2018-02-03T07:41:41.491Z,99095.73
2018-02-03T07:44:09.335Z,99101.72
2018-02-03T07:46:36.899Z,99086.92
2018-02-03T07:49:04.468Z,99098.02
2018-02-03T07:51:32.731Z,99093.09
2018-02-03T07:54:00.378Z,99087.88
2018-02-03T07:56:27.941Z,99080.45
2018-02-03T07:58:55.604Z,99081.92
2018-02-03T08:01:23.163Z,99092.27
2018-02-03T08:03:50.786Z,99093.25
2018-02-03T08:06:18.367Z,99081.73
2018-02-03T08:08:45.930Z,99073.18
2018-02-03T08:11:13.509Z,99068.99
2018-02-03T08:13:41.841Z,99063.13
2018-02-03T08:16:09.747Z,99064.45
2018-02-03T08:18:37.433Z,99060.40
2018-02-03T08:21:04.998Z,99066.23
2018-02-03T08:23:32.810Z,99068.82
2018-02-03T08:26:00.377Z,99061.10
2018-02-03T08:28:28.858Z,99046.88
2018-02-03T08:30:57.248Z,99063.80
2018-02-03T08:33:24.872Z,99064.06
2018-02-03T08:35:52.572Z,99064.70
2018-02-03T08:38:20.121Z,99061.14
2018-02-03T08:40:47.687Z,99058.66
2018-02-03T08:43:15.386Z,99069.65
2018-02-03T08:45:42.978Z,99068.16
2018-02-03T08:48:10.542Z,99067.48
2018-02-03T08:50:38.243Z,99055.33
2018-02-03T08:53:05.878Z,99075.77
2018-02-03T08:55:33.626Z,99069.97
2018-02-03T08:58:01.219Z,99058.00
2018-02-03T09:00:28.818Z,99061.13
2018-02-03T09:02:56.409Z,99053.25
2018-02-03T09:05:24.067Z,99040.22
2018-02-03T09:07:51.724Z,99019.31
2018-02-03T09:10:19.494Z,98990.42
2018-02-03T09:12:47.154Z,98987.23
2018-02-03T09:15:14.735Z,98980.29
2018-02-03T09:17:42.367Z,98980.34
2018-02-03T09:20:10.123Z,98965.79
2018-02-03T09:22:37.958Z,98973.98
2018-02-03T09:25:05.663Z,98985.48
2018-02-03T09:27:33.235Z,98979.16
2018-02-03T09:30:00.824Z,98971.73
2018-02-03T09:32:28.482Z,98980.94
2018-02-03T09:34:56.083Z,98998.16
2018-02-03T09:37:23.742Z,99002.97
2018-02-03T09:39:51.321Z,99009.83
2018-02-03T09:42:19.382Z,99016.47
2018-02-03T09:44:46.942Z,99027.88
2018-02-03T09:47:14.581Z,99050.70
2018-02-03T09:49:42.162Z,99055.52
2018-02-03T09:52:09.722Z,99034.82
2018-02-03T09:54:37.304Z,99006.58
2018-02-03T09:57:04.905Z,98990.19
2018-02-03T09:59:32.613Z,98956.59
2018-02-03T10:02:00.274Z,98973.13
2018-02-03T10:04:27.894Z,98972.55
2018-02-03T10:06:55.574Z,98956.14
2018-02-03T10:09:24.041Z,98953.56
2018-02-03T10:11:51.630Z,98939.28
2018-02-03T10:14:19.200Z,98958.80
2018-02-03T10:16:46.888Z,98938.81
2018-02-03T10:19:15.646Z,98908.34
2018-02-03T10:21:43.270Z,98907.11
2018-02-03T10:24:10.834Z,98911.00
2018-02-03T10:26:38.619Z,98917.14
2018-02-03T10:29:06.263Z,98929.69
2018-02-03T10:31:33.882Z,98915.70
2018-02-03T10:34:01.542Z,98910.13
2018-02-03T10:36:29.107Z,98910.59
2018-02-03T10:38:56.674Z,98885.84
2018-02-03T10:41:24.247Z,98868.32
2018-02-03T10:43:51.978Z,98844.61
2018-02-03T10:46:19.635Z,98860.66
2018-02-03T10:48:47.277Z,98835.22
2018-02-03T10:51:14.940Z,98827.68
2018-02-03T10:53:42.506Z,98826.63
2018-02-03T10:56:10.071Z,98810.70
2018-02-03T10:58:37.666Z,98818.60
2018-02-03T11:01:09.803Z,98793.88
2018-02-03T11:03:37.380Z,98774.63
2018-02-03T11:06:05.110Z,98797.18
2018-02-03T11:08:32.806Z,98812.34
2018-02-03T11:11:00.371Z,98798.06
2018-02-03T11:13:27.994Z,98792.39
2018-02-03T11:15:56.335Z,98799.01
2018-02-03T11:18:24.094Z,98821.03
2018-02-03T11:20:51.670Z,98814.95
2018-02-03T11:23:19.286Z,98810.94
2018-02-03T11:25:46.975Z,98801.83
2018-02-03T11:28:14.535Z,98790.55
2018-02-03T11:30:42.291Z,98788.29
2018-02-03T11:33:10.309Z,98778.59
2018-02-03T11:35:37.886Z,98771.57
2018-02-03T11:38:05.563Z,98786.98
2018-02-03T11:40:33.287Z,98772.45
2018-02-03T11:43:01.064Z,98757.04
2018-02-03T11:45:29.180Z,98756.27
2018-02-03T11:47:57.163Z,98766.65
2018-02-03T11:50:24.983Z,98753.47
2018-02-03T11:52:52.654Z,98759.32
2018-02-03T11:55:20.282Z,98754.45
2018-02-03T11:57:47.938Z,98761.05
2018-02-03T12:00:15.977Z,98727.07
2018-02-03T12:02:43.632Z,98732.59
2018-02-03T12:05:11.268Z,98734.53
2018-02-03T12:07:38.957Z,98742.23
2018-02-03T12:10:06.941Z,98733.39
2018-02-03T12:12:34.559Z,98725.39
2018-02-03T12:15:02.261Z,98726.02
2018-02-03T12:17:30.071Z,98704.08
2018-02-03T12:19:58.246Z,98722.91
2018-02-03T12:22:25.815Z,98723.08
2018-02-03T12:24:53.381Z,98710.95
2018-02-03T12:27:21.198Z,98717.64
2018-02-03T12:29:48.834Z,98701.45
2018-02-03T12:32:16.681Z,98720.41
2018-02-03T12:34:44.329Z,98721.40
2018-02-03T12:37:12.035Z,98732.07
2018-02-03T12:39:39.654Z,98740.14
2018-02-03T12:42:08.105Z,98742.16
2018-02-03T12:44:35.678Z,98732.48
2018-02-03T12:47:03.485Z,98730.59
2018-02-03T12:49:31.222Z,98716.98
2018-02-03T12:51:58.843Z,98694.73
2018-02-03T12:54:26.542Z,98689.50
2018-02-03T12:56:54.242Z,98687.93
2018-02-03T12:59:21.803Z,98687.56
2018-02-03T13:01:49.373Z,98671.00
2018-02-03T13:04:17.178Z,98673.30
2018-02-03T13:06:44.757Z,98666.59
2018-02-03T13:09:12.374Z,98663.78
2018-02-03T13:11:40.044Z,98659.30
2018-02-03T13:14:07.804Z,98655.80
2018-02-03T13:16:36.724Z,98642.90
2018-02-03T13:19:04.310Z,98638.45
2018-02-03T13:21:31.965Z,98643.72
2018-02-03T13:23:59.637Z,98643.18
2018-02-03T13:26:27.229Z,98649.61
2018-02-03T13:28:54.961Z,98645.90
2018-02-03T13:31:23.596Z,98628.92
2018-02-03T13:33:51.340Z,98621.74
2018-02-03T13:36:19.081Z,98606.98
2018-02-03T13:38:46.887Z,98609.53
2018-02-03T13:41:14.495Z,98593.91
2018-02-03T13:43:42.375Z,98598.03
2018-02-03T13:46:10.090Z,98608.15
2018-02-03T13:48:38.713Z,98605.66
2018-02-03T13:51:06.758Z,98603.44
2018-02-03T13:53:35.379Z,98603.38
2018-02-03T13:56:03.061Z,98616.75
2018-02-03T13:58:32.644Z,98612.34
2018-02-03T14:01:00.277Z,98615.48
2018-02-03T14:03:29.972Z,98599.79
2018-02-03T14:05:57.538Z,98613.89
2018-02-03T14:08:25.133Z,98614.63
2018-02-03T14:10:53.569Z,98597.17
2018-02-03T14:13:21.565Z,98590.50
2018-02-03T14:15:49.203Z,98586.63
2018-02-03T14:18:16.771Z,98585.40
2018-02-03T14:20:44.465Z,98570.52
2018-02-03T14:23:12.044Z,98571.00
2018-02-03T14:25:39.728Z,98568.03
2018-02-03T14:28:07.330Z,98556.84
2018-02-03T14:30:34.944Z,98546.88
2018-02-03T14:33:02.850Z,98563.20
2018-02-03T14:35:31.749Z,98575.91
2018-02-03T14:37:59.810Z,98592.67
2018-02-03T14:40:28.530Z,98602.25
2018-02-03T14:42:56.227Z,98597.41
2018-02-03T14:45:24.188Z,98601.04
2018-02-03T14:47:51.885Z,98606.86
2018-02-03T14:50:19.698Z,98589.58
2018-02-03T14:52:47.773Z,98583.81
2018-02-03T14:55:16.093Z,98577.67
2018-02-03T14:57:44.756Z,98592.45
2018-02-03T15:00:20.292Z,98602.66
2018-02-03T15:02:47.943Z,98609.20
2018-02-03T15:05:15.607Z,98588.30
2018-02-03T15:07:43.206Z,98588.23
2018-02-03T15:10:10.782Z,98596.28
2018-02-03T15:12:40.609Z,98603.53
2018-02-03T15:15:09.560Z,98595.19
2018-02-03T15:17:37.399Z,98587.65
2018-02-03T15:20:05.079Z,98587.14
2018-02-03T15:22:32.778Z,98586.08
2018-02-03T15:25:00.770Z,98579.58
2018-02-03T15:27:29.436Z,98577.00
2018-02-03T15:32:33.295Z,98578.02
2018-02-03T15:35:01.832Z,98578.91
2018-02-03T15:37:29.394Z,98566.74
2018-02-03T15:39:57.029Z,98587.06
2018-02-03T15:42:24.594Z,98585.29
2018-02-03T15:44:52.162Z,98581.00
2018-02-03T15:47:19.798Z,98571.03
2018-02-03T15:49:47.364Z,98573.80
2018-02-03T15:52:15.976Z,98574.75
2018-02-03T15:54:43.602Z,98581.64
2018-02-03T15:57:11.231Z,98592.82
2018-02-03T15:59:38.790Z,98582.18
2018-02-03T16:02:06.362Z,98593.86
2018-02-03T16:04:33.942Z,98586.36
2018-02-03T16:07:01.506Z,98585.96
2018-02-03T16:09:30.051Z,98565.27
2018-02-03T16:11:57.618Z,98563.72
2018-02-03T16:14:26.259Z,98579.59
2018-02-03T16:16:53.859Z,98585.02
2018-02-03T16:19:21.423Z,98579.49
2018-02-03T16:21:49.047Z,98581.89
2018-02-03T16:24:18.657Z,98613.47
2018-02-03T16:26:46.278Z,98616.59
2018-02-03T16:29:13.857Z,98608.95
2018-02-03T16:31:41.491Z,98611.02
2018-02-03T16:34:09.127Z,98613.55
2018-02-03T16:36:36.751Z,98616.63
2018-02-03T16:39:04.458Z,98631.93
2018-02-03T16:41:32.064Z,98621.81
2018-02-03T16:43:59.801Z,98608.90
2018-02-03T16:46:27.417Z,98622.52
2018-02-03T16:48:55.023Z,98627.73
2018-02-03T16:51:22.670Z,98631.97
2018-02-03T16:53:50.402Z,98618.69
2018-02-03T16:56:18.165Z,98632.62
2018-02-03T16:58:45.782Z,98624.81
2018-02-03T17:01:13.434Z,98629.95
2018-02-03T17:03:41.068Z,98626.66
2018-02-03T17:06:08.697Z,98627.36
2018-02-03T17:08:36.275Z,98633.08
2018-02-03T17:11:03.837Z,98638.02
2018-02-03T17:13:31.450Z,98629.00
2018-02-03T17:15:59.011Z,98632.83
2018-02-03T17:18:26.582Z,98613.00
2018-02-03T17:20:54.410Z,98620.61
2018-02-03T17:23:23.024Z,98633.95
2018-02-03T17:25:50.646Z,98624.56
2018-02-03T17:28:18.269Z,98642.94
2018-02-03T17:30:45.887Z,98627.16
2018-02-03T17:33:13.466Z,98637.44
2018-02-03T17:35:41.087Z,98637.88
2018-02-03T17:38:14.250Z,98640.45
2018-02-03T17:40:41.831Z,98657.52
2018-02-03T17:43:09.417Z,98654.56
2018-02-03T17:45:43.004Z,98659.99
2018-02-03T17:48:10.655Z,98669.87
2018-02-03T17:50:38.263Z,98670.83
2018-02-03T17:53:05.841Z,98666.17
2018-02-03T17:55:39.047Z,98658.95
2018-02-03T17:58:06.632Z,98668.42
2018-02-03T18:00:34.275Z,98648.73
2018-02-03T18:03:01.899Z,98636.05
2018-02-03T18:05:29.464Z,98633.15
2018-02-03T18:07:57.024Z,98633.15
2018-02-03T18:10:24.691Z,98635.04
2018-02-03T18:12:52.311Z,98632.81
2018-02-03T18:15:19.889Z,98631.55
2018-02-03T18:17:47.454Z,98629.00
2018-02-03T18:20:15.132Z,98627.65
2018-02-03T18:22:42.699Z,98622.02
2018-02-03T18:25:10.331Z,98621.78
2018-02-03T18:27:37.903Z,98613.01
2018-02-03T18:30:05.545Z,98624.89
2018-02-03T18:32:33.151Z,98604.12
2018-02-03T18:35:00.794Z,98612.67
2018-02-03T18:37:28.422Z,98609.50
2018-02-03T18:39:56.092Z,98615.52
2018-02-03T18:42:24.526Z,98619.07
2018-02-03T18:44:52.103Z,98613.64
2018-02-03T18:47:19.662Z,98594.88
2018-02-03T18:52:40.146Z,98592.59
2018-02-03T18:55:07.777Z,98595.88
2018-02-03T18:57:35.352Z,98584.14
2018-02-03T19:00:03.591Z,98567.04
2018-02-03T19:02:31.176Z,98568.45
2018-02-03T19:04:59.658Z,98575.77
2018-02-03T19:07:27.230Z,98575.79
2018-02-03T19:09:54.806Z,98582.26
2018-02-03T19:12:22.382Z,98572.71
2018-02-03T19:14:49.946Z,98576.42
2018-02-03T19:17:17.553Z,98577.41
2018-02-03T19:19:45.117Z,98585.02
2018-02-03T19:22:12.706Z,98588.09
2018-02-03T19:24:41.388Z,98586.38
2018-02-03T19:27:08.962Z,98589.33
2018-02-03T19:29:36.532Z,98585.71
2018-02-03T19:32:04.093Z,98595.36
2018-02-03T19:34:31.763Z,98598.77
2018-02-03T19:36:59.381Z,98616.77
2018-02-03T19:39:26.997Z,98601.66
2018-02-03T19:41:54.663Z,98603.38
2018-02-03T19:44:22.304Z,98628.39
2018-02-03T19:46:49.937Z,98625.38
2018-02-03T19:49:17.574Z,98620.38
2018-02-03T19:51:45.198Z,98627.55
2018-02-03T19:54:12.826Z,98612.05
2018-02-03T19:56:40.484Z,98618.83
2018-02-03T19:59:08.076Z,98632.29
2018-02-03T20:01:35.760Z,98633.04
2018-02-03T20:04:04.186Z,98639.58
2018-02-03T20:06:31.840Z,98647.78
2018-02-03T20:09:00.315Z,98655.97
2018-02-03T20:11:27.896Z,98657.38
2018-02-03T20:13:55.606Z,98645.23
2018-02-03T20:16:25.132Z,98643.82
2018-02-03T20:18:53.193Z,98629.48
2018-02-03T20:21:20.914Z,98633.30
2018-02-03T20:23:49.411Z,98642.75
2018-02-03T20:26:17.993Z,98629.66
2018-02-03T20:28:46.676Z,98637.42
2018-02-03T20:31:15.477Z,98649.69
2018-02-03T20:33:43.211Z,98637.48
2018-02-03T20:36:10.795Z,98617.19
2018-02-03T20:38:38.673Z,98634.56
2018-02-03T20:41:07.333Z,98650.88
2018-02-03T20:43:34.986Z,98647.91
2018-02-03T20:46:02.561Z,98641.12
2018-02-03T20:48:30.893Z,98647.31
2018-02-03T20:50:58.530Z,98652.20
2018-02-03T20:53:26.146Z,98637.13
2018-02-03T20:55:53.759Z,98641.63
2018-02-03T20:58:21.327Z,98646.13
2018-02-03T21:00:48.940Z,98642.54
2018-02-03T21:03:16.525Z,98642.75
2018-02-03T21:05:44.723Z,98646.98
2018-02-03T21:08:12.312Z,98635.28
2018-02-03T21:10:39.935Z,98641.48
2018-02-03T21:13:07.574Z,98671.21
2018-02-03T21:15:35.138Z,98656.50
2018-02-03T21:18:02.726Z,98677.98
2018-02-03T21:20:30.290Z,98681.65
2018-02-03T21:22:57.913Z,98679.11
2018-02-03T21:25:25.486Z,98685.00
2018-02-03T21:27:53.109Z,98692.48
2018-02-03T21:30:20.707Z,98689.46
2018-02-03T21:35:30.261Z,98688.41
2018-02-03T21:37:57.903Z,98682.70
2018-02-03T21:40:25.458Z,98683.40
2018-02-03T21:42:53.026Z,98672.34
2018-02-03T21:45:20.627Z,98664.36
2018-02-03T21:47:48.234Z,98670.59
2018-02-03T21:50:15.801Z,98681.72
2018-02-03T21:52:43.421Z,98673.88
2018-02-03T21:55:11.038Z,98676.29
2018-02-03T21:57:38.600Z,98674.72
2018-02-03T22:00:06.189Z,98662.41
2018-02-03T22:02:33.754Z,98660.28
2018-02-03T22:05:01.393Z,98657.55
2018-02-03T22:07:28.962Z,98649.25
2018-02-03T22:09:56.637Z,98651.66
2018-02-03T22:12:24.246Z,98654.13
2018-02-03T22:14:51.809Z,98643.09
2018-02-03T22:17:19.440Z,98630.44
2018-02-03T22:19:46.998Z,98640.25
2018-02-03T22:22:14.573Z,98643.55
2018-02-03T22:24:42.137Z,98644.02
2018-02-03T22:27:09.761Z,98629.58
2018-02-03T22:29:37.330Z,98638.63
2018-02-03T22:32:04.906Z,98657.72
2018-02-03T22:34:32.486Z,98658.56
2018-02-03T22:37:00.122Z,98672.64
2018-02-03T22:39:27.754Z,98662.78
2018-02-03T22:41:55.326Z,98670.62
2018-02-03T22:44:22.999Z,98672.28
2018-02-03T22:46:50.567Z,98675.08
2018-02-03T22:49:18.190Z,98678.66
2018-02-03T22:51:45.785Z,98685.48
2018-02-03T22:54:13.359Z,98676.29
2018-02-03T22:56:41.001Z,98684.89
2018-02-03T22:59:08.570Z,98668.52
2018-02-03T23:01:36.198Z,98658.36
2018-02-03T23:04:03.899Z,98657.23
2018-02-03T23:06:31.531Z,98659.05
2018-02-03T23:08:59.143Z,98659.47
2018-02-03T23:11:26.723Z,98658.55
2018-02-03T23:13:54.299Z,98666.56
2018-02-03T23:16:21.874Z,98663.16
2018-02-03T23:18:49.506Z,98665.54
2018-02-03T23:21:17.107Z,98665.45
2018-02-03T23:23:44.819Z,98659.48
2018-02-03T23:26:12.422Z,98642.61
2018-02-03T23:28:40.029Z,98645.25
2018-02-03T23:31:07.599Z,98642.48
2018-02-03T23:33:35.189Z,98631.34
2018-02-03T23:36:02.758Z,98629.72
2018-02-03T23:38:30.325Z,98624.28
2018-02-03T23:40:57.898Z,98634.33
2018-02-03T23:43:25.575Z,98642.82
2018-02-03T23:45:53.162Z,98642.52
2018-02-03T23:48:20.805Z,98633.34
2018-02-03T23:50:48.386Z,98635.41
2018-02-03T23:53:15.958Z,98636.23
2018-02-03T23:55:43.574Z,98637.89
2018-02-03T23:58:11.209Z,98646.34
